sensor_id;sensor_type;location;lat;lon;timestamp;temperature;humidity
33955;DHT22;20233;50.804;7.126;2023-05-24T00:02:10;10.20;99.90
33955;DHT22;20233;50.804;7.126;2023-05-24T00:04:38;10.20;99.90
33955;DHT22;20233;50.804;7.126;2023-05-24T00:07:04;10.10;99.90
33955;DHT22;20233;50.804;7.126;2023-05-24T00:09:31;10.10;99.90
33955;DHT22;20233;50.804;7.126;2023-05-24T00:11:57;10.20;99.90
33955;DHT22;20233;50.804;7.126;2023-05-24T00:14:23;10.20;99.90
33955;DHT22;20233;50.804;7.126;2023-05-24T00:16:49;10.20;99.90
33955;DHT22;20233;50.804;7.126;2023-05-24T00:19:15;10.20;99.90
33955;DHT22;20233;50.804;7.126;2023-05-24T00:21:43;10.10;99.90
33955;DHT22;20233;50.804;7.126;2023-05-24T00:24:09;10.10;99.90
33955;DHT22;20233;50.804;7.126;2023-05-24T00:26:35;10.10;99.90
33955;DHT22;20233;50.804;7.126;2023-05-24T00:29:01;10.10;99.90
33955;DHT22;20233;50.804;7.126;2023-05-24T00:31:28;10.10;99.90
33955;DHT22;20233;50.804;7.126;2023-05-24T00:33:54;10.10;99.90
33955;DHT22;20233;50.804;7.126;2023-05-24T00:36:22;10.00;99.90
33955;DHT22;20233;50.804;7.126;2023-05-24T00:38:48;9.90;99.90
33955;DHT22;20233;50.804;7.126;2023-05-24T00:41:14;9.80;99.90
33955;DHT22;20233;50.804;7.126;2023-05-24T00:43:39;9.60;99.90
33955;DHT22;20233;50.804;7.126;2023-05-24T00:46:28;9.70;99.90
33955;DHT22;20233;50.804;7.126;2023-05-24T00:48:54;9.60;99.90
33955;DHT22;20233;50.804;7.126;2023-05-24T00:51:20;9.60;99.90
33955;DHT22;20233;50.804;7.126;2023-05-24T00:53:47;9.60;99.90
33955;DHT22;20233;50.804;7.126;2023-05-24T00:56:14;9.60;99.90
33955;DHT22;20233;50.804;7.126;2023-05-24T00:58:40;9.60;99.90
33955;DHT22;20233;50.804;7.126;2023-05-24T01:01:06;9.60;99.90
33955;DHT22;20233;50.804;7.126;2023-05-24T01:03:32;9.60;99.90
33955;DHT22;20233;50.804;7.126;2023-05-24T01:06:02;9.60;99.90
33955;DHT22;20233;50.804;7.126;2023-05-24T01:17:12;9.60;99.90
33955;DHT22;20233;50.804;7.126;2023-05-24T01:20:03;9.40;99.90
33955;DHT22;20233;50.804;7.126;2023-05-24T01:25:57;9.60;99.90
33955;DHT22;20233;50.804;7.126;2023-05-24T01:28:15;9.80;99.90
33955;DHT22;20233;50.804;7.126;2023-05-24T01:30:41;9.80;99.90
33955;DHT22;20233;50.804;7.126;2023-05-24T01:33:07;9.80;99.90
33955;DHT22;20233;50.804;7.126;2023-05-24T01:35:33;9.90;99.90
33955;DHT22;20233;50.804;7.126;2023-05-24T01:38:05;9.80;99.90
33955;DHT22;20233;50.804;7.126;2023-05-24T01:40:32;9.80;99.90
33955;DHT22;20233;50.804;7.126;2023-05-24T01:43:26;9.80;99.90
33955;DHT22;20233;50.804;7.126;2023-05-24T01:46:08;9.80;99.90
33955;DHT22;20233;50.804;7.126;2023-05-24T01:51:25;9.60;99.90
33955;DHT22;20233;50.804;7.126;2023-05-24T01:53:57;9.60;99.90
33955;DHT22;20233;50.804;7.126;2023-05-24T01:56:25;9.70;99.90
33955;DHT22;20233;50.804;7.126;2023-05-24T01:58:53;9.80;99.90
33955;DHT22;20233;50.804;7.126;2023-05-24T02:01:19;9.80;99.90
33955;DHT22;20233;50.804;7.126;2023-05-24T02:03:46;9.80;99.90
33955;DHT22;20233;50.804;7.126;2023-05-24T02:06:23;9.70;99.90
33955;DHT22;20233;50.804;7.126;2023-05-24T02:08:51;9.60;99.90
33955;DHT22;20233;50.804;7.126;2023-05-24T02:11:17;9.60;99.90
33955;DHT22;20233;50.804;7.126;2023-05-24T02:13:43;9.60;99.90
33955;DHT22;20233;50.804;7.126;2023-05-24T02:16:08;9.50;99.90
33955;DHT22;20233;50.804;7.126;2023-05-24T02:18:35;9.60;99.90
33955;DHT22;20233;50.804;7.126;2023-05-24T02:21:01;9.60;99.90
33955;DHT22;20233;50.804;7.126;2023-05-24T02:23:27;9.50;99.90
33955;DHT22;20233;50.804;7.126;2023-05-24T02:25:54;9.40;99.90
33955;DHT22;20233;50.804;7.126;2023-05-24T02:28:19;9.40;99.90
33955;DHT22;20233;50.804;7.126;2023-05-24T02:30:45;9.30;99.90
33955;DHT22;20233;50.804;7.126;2023-05-24T02:33:11;9.30;99.90
33955;DHT22;20233;50.804;7.126;2023-05-24T02:35:36;9.20;99.90
33955;DHT22;20233;50.804;7.126;2023-05-24T02:38:02;9.10;99.90
33955;DHT22;20233;50.804;7.126;2023-05-24T02:40:31;9.10;99.90
33955;DHT22;20233;50.804;7.126;2023-05-24T02:42:56;9.10;99.90
33955;DHT22;20233;50.804;7.126;2023-05-24T02:45:22;9.00;99.90
33955;DHT22;20233;50.804;7.126;2023-05-24T02:47:47;9.00;99.90
33955;DHT22;20233;50.804;7.126;2023-05-24T02:50:13;9.00;99.90
33955;DHT22;20233;50.804;7.126;2023-05-24T02:52:39;9.00;99.90
33955;DHT22;20233;50.804;7.126;2023-05-24T02:55:05;8.90;99.90
33955;DHT22;20233;50.804;7.126;2023-05-24T02:57:31;8.90;99.90
33955;DHT22;20233;50.804;7.126;2023-05-24T02:59:58;8.80;99.90
33955;DHT22;20233;50.804;7.126;2023-05-24T03:02:24;8.80;99.90
33955;DHT22;20233;50.804;7.126;2023-05-24T03:04:52;8.80;99.90
33955;DHT22;20233;50.804;7.126;2023-05-24T03:07:18;8.80;99.90
33955;DHT22;20233;50.804;7.126;2023-05-24T03:09:43;8.70;99.90
33955;DHT22;20233;50.804;7.126;2023-05-24T03:12:09;8.70;99.90
33955;DHT22;20233;50.804;7.126;2023-05-24T03:14:35;8.70;99.90
33955;DHT22;20233;50.804;7.126;2023-05-24T03:17:00;8.60;99.90
33955;DHT22;20233;50.804;7.126;2023-05-24T03:19:26;8.60;99.90
33955;DHT22;20233;50.804;7.126;2023-05-24T03:21:52;8.50;99.90
33955;DHT22;20233;50.804;7.126;2023-05-24T03:24:17;8.50;99.90
33955;DHT22;20233;50.804;7.126;2023-05-24T03:26:43;8.50;99.90
33955;DHT22;20233;50.804;7.126;2023-05-24T03:29:09;8.50;99.90
33955;DHT22;20233;50.804;7.126;2023-05-24T03:34:01;8.50;99.90
33955;DHT22;20233;50.804;7.126;2023-05-24T03:36:26;8.50;99.90
33955;DHT22;20233;50.804;7.126;2023-05-24T03:38:53;8.50;99.90
33955;DHT22;20233;50.804;7.126;2023-05-24T03:41:19;8.50;99.90
33955;DHT22;20233;50.804;7.126;2023-05-24T03:43:45;8.40;99.90
33955;DHT22;20233;50.804;7.126;2023-05-24T03:46:10;8.60;99.90
33955;DHT22;20233;50.804;7.126;2023-05-24T03:48:36;8.60;99.90
33955;DHT22;20233;50.804;7.126;2023-05-24T03:51:02;8.70;99.90
33955;DHT22;20233;50.804;7.126;2023-05-24T03:53:28;8.70;99.90
33955;DHT22;20233;50.804;7.126;2023-05-24T03:55:53;8.70;99.90
33955;DHT22;20233;50.804;7.126;2023-05-24T03:58:19;8.60;99.90
33955;DHT22;20233;50.804;7.126;2023-05-24T04:00:45;8.60;99.90
33955;DHT22;20233;50.804;7.126;2023-05-24T04:03:11;8.50;99.90
33955;DHT22;20233;50.804;7.126;2023-05-24T04:05:36;8.50;99.90
33955;DHT22;20233;50.804;7.126;2023-05-24T04:08:02;8.50;99.90
33955;DHT22;20233;50.804;7.126;2023-05-24T04:10:29;8.50;99.90
33955;DHT22;20233;50.804;7.126;2023-05-24T04:12:55;8.60;99.90
33955;DHT22;20233;50.804;7.126;2023-05-24T04:15:22;8.60;99.90
33955;DHT22;20233;50.804;7.126;2023-05-24T04:17:48;8.60;99.90
33955;DHT22;20233;50.804;7.126;2023-05-24T04:20:19;8.60;99.90
33955;DHT22;20233;50.804;7.126;2023-05-24T04:22:48;8.70;99.90
33955;DHT22;20233;50.804;7.126;2023-05-24T04:25:14;8.70;99.90
33955;DHT22;20233;50.804;7.126;2023-05-24T04:27:40;8.80;99.90
33955;DHT22;20233;50.804;7.126;2023-05-24T04:30:06;8.80;99.90
33955;DHT22;20233;50.804;7.126;2023-05-24T04:32:33;8.80;99.90
33955;DHT22;20233;50.804;7.126;2023-05-24T04:35:00;8.70;99.90
33955;DHT22;20233;50.804;7.126;2023-05-24T04:37:27;8.90;99.90
33955;DHT22;20233;50.804;7.126;2023-05-24T04:39:53;8.80;99.90
33955;DHT22;20233;50.804;7.126;2023-05-24T04:42:20;8.90;99.90
33955;DHT22;20233;50.804;7.126;2023-05-24T04:44:48;8.90;99.90
33955;DHT22;20233;50.804;7.126;2023-05-24T04:47:14;8.80;99.90
33955;DHT22;20233;50.804;7.126;2023-05-24T04:49:41;8.90;99.90
33955;DHT22;20233;50.804;7.126;2023-05-24T04:52:06;8.70;99.90
33955;DHT22;20233;50.804;7.126;2023-05-24T04:54:32;8.70;99.90
33955;DHT22;20233;50.804;7.126;2023-05-24T04:56:58;8.90;99.90
33955;DHT22;20233;50.804;7.126;2023-05-24T04:59:23;8.90;99.90
33955;DHT22;20233;50.804;7.126;2023-05-24T05:01:50;9.10;99.90
33955;DHT22;20233;50.804;7.126;2023-05-24T05:04:18;9.00;99.90
33955;DHT22;20233;50.804;7.126;2023-05-24T05:06:45;9.20;99.90
33955;DHT22;20233;50.804;7.126;2023-05-24T05:09:13;9.10;99.90
33955;DHT22;20233;50.804;7.126;2023-05-24T05:11:41;9.20;99.90
33955;DHT22;20233;50.804;7.126;2023-05-24T05:14:09;9.30;99.90
33955;DHT22;20233;50.804;7.126;2023-05-24T05:16:37;9.30;99.90
33955;DHT22;20233;50.804;7.126;2023-05-24T05:19:06;9.20;99.90
33955;DHT22;20233;50.804;7.126;2023-05-24T05:21:34;9.10;99.90
33955;DHT22;20233;50.804;7.126;2023-05-24T05:24:02;9.00;99.90
33955;DHT22;20233;50.804;7.126;2023-05-24T05:26:30;9.00;99.90
33955;DHT22;20233;50.804;7.126;2023-05-24T05:28:57;9.00;99.90
33955;DHT22;20233;50.804;7.126;2023-05-24T05:31:25;8.80;99.90
33955;DHT22;20233;50.804;7.126;2023-05-24T05:33:52;8.90;99.90
33955;DHT22;20233;50.804;7.126;2023-05-24T05:36:19;8.80;99.90
33955;DHT22;20233;50.804;7.126;2023-05-24T05:38:46;8.90;99.90
33955;DHT22;20233;50.804;7.126;2023-05-24T05:41:13;9.10;99.90
33955;DHT22;20233;50.804;7.126;2023-05-24T05:43:41;8.90;99.90
33955;DHT22;20233;50.804;7.126;2023-05-24T05:46:08;9.00;99.90
33955;DHT22;20233;50.804;7.126;2023-05-24T05:48:36;9.20;99.90
33955;DHT22;20233;50.804;7.126;2023-05-24T05:51:03;9.30;99.90
33955;DHT22;20233;50.804;7.126;2023-05-24T05:53:32;9.20;99.90
33955;DHT22;20233;50.804;7.126;2023-05-24T05:55:59;9.10;99.90
33955;DHT22;20233;50.804;7.126;2023-05-24T05:58:26;9.30;99.90
33955;DHT22;20233;50.804;7.126;2023-05-24T06:00:54;9.50;99.90
33955;DHT22;20233;50.804;7.126;2023-05-24T06:03:21;9.50;99.90
33955;DHT22;20233;50.804;7.126;2023-05-24T06:05:47;9.50;99.90
33955;DHT22;20233;50.804;7.126;2023-05-24T06:08:16;9.60;99.90
33955;DHT22;20233;50.804;7.126;2023-05-24T06:10:45;9.60;99.90
33955;DHT22;20233;50.804;7.126;2023-05-24T06:13:13;9.70;99.90
33955;DHT22;20233;50.804;7.126;2023-05-24T06:15:41;9.80;99.90
33955;DHT22;20233;50.804;7.126;2023-05-24T06:18:08;9.90;99.90
33955;DHT22;20233;50.804;7.126;2023-05-24T06:20:36;10.10;99.90
33955;DHT22;20233;50.804;7.126;2023-05-24T06:23:04;10.00;99.90
33955;DHT22;20233;50.804;7.126;2023-05-24T06:25:36;10.10;99.90
33955;DHT22;20233;50.804;7.126;2023-05-24T06:28:04;10.30;99.90
33955;DHT22;20233;50.804;7.126;2023-05-24T06:30:32;10.20;99.90
33955;DHT22;20233;50.804;7.126;2023-05-24T06:32:58;10.10;99.90
33955;DHT22;20233;50.804;7.126;2023-05-24T06:35:25;10.40;99.90
33955;DHT22;20233;50.804;7.126;2023-05-24T06:37:52;10.30;99.90
33955;DHT22;20233;50.804;7.126;2023-05-24T06:40:19;10.30;99.90
33955;DHT22;20233;50.804;7.126;2023-05-24T06:42:47;10.40;99.90
33955;DHT22;20233;50.804;7.126;2023-05-24T06:45:15;10.40;99.90
33955;DHT22;20233;50.804;7.126;2023-05-24T06:47:42;10.40;99.90
33955;DHT22;20233;50.804;7.126;2023-05-24T06:50:09;10.40;99.90
33955;DHT22;20233;50.804;7.126;2023-05-24T06:52:36;10.50;99.90
33955;DHT22;20233;50.804;7.126;2023-05-24T06:55:03;10.80;99.90
33955;DHT22;20233;50.804;7.126;2023-05-24T06:57:30;10.80;99.90
33955;DHT22;20233;50.804;7.126;2023-05-24T06:59:56;10.80;99.90
33955;DHT22;20233;50.804;7.126;2023-05-24T07:02:23;10.90;99.90
33955;DHT22;20233;50.804;7.126;2023-05-24T07:04:52;11.10;99.90
33955;DHT22;20233;50.804;7.126;2023-05-24T07:07:19;11.30;99.90
33955;DHT22;20233;50.804;7.126;2023-05-24T07:09:47;11.10;99.90
33955;DHT22;20233;50.804;7.126;2023-05-24T07:12:13;11.00;99.90
33955;DHT22;20233;50.804;7.126;2023-05-24T07:14:41;11.10;99.90
33955;DHT22;20233;50.804;7.126;2023-05-24T07:17:08;11.30;99.90
33955;DHT22;20233;50.804;7.126;2023-05-24T07:19:36;11.50;99.90
33955;DHT22;20233;50.804;7.126;2023-05-24T07:22:04;11.50;99.90
33955;DHT22;20233;50.804;7.126;2023-05-24T07:24:32;11.30;99.90
33955;DHT22;20233;50.804;7.126;2023-05-24T07:26:59;11.50;99.90
33955;DHT22;20233;50.804;7.126;2023-05-24T07:29:25;11.60;99.90
33955;DHT22;20233;50.804;7.126;2023-05-24T07:31:54;11.70;99.90
33955;DHT22;20233;50.804;7.126;2023-05-24T07:34:23;11.90;99.90
33955;DHT22;20233;50.804;7.126;2023-05-24T07:36:52;11.80;99.90
33955;DHT22;20233;50.804;7.126;2023-05-24T07:39:20;11.80;99.90
33955;DHT22;20233;50.804;7.126;2023-05-24T07:41:54;11.80;99.90
33955;DHT22;20233;50.804;7.126;2023-05-24T07:44:21;11.70;99.90
33955;DHT22;20233;50.804;7.126;2023-05-24T07:46:50;11.80;99.90
33955;DHT22;20233;50.804;7.126;2023-05-24T07:49:18;12.10;99.90
33955;DHT22;20233;50.804;7.126;2023-05-24T07:51:45;12.10;99.90
33955;DHT22;20233;50.804;7.126;2023-05-24T07:54:13;12.20;99.90
33955;DHT22;20233;50.804;7.126;2023-05-24T07:56:41;12.10;99.90
33955;DHT22;20233;50.804;7.126;2023-05-24T07:59:09;12.30;99.90
33955;DHT22;20233;50.804;7.126;2023-05-24T08:01:36;12.50;99.90
33955;DHT22;20233;50.804;7.126;2023-05-24T08:06:34;12.50;99.90
33955;DHT22;20233;50.804;7.126;2023-05-24T08:09:05;12.60;99.90
33955;DHT22;20233;50.804;7.126;2023-05-24T08:11:37;12.60;99.90
33955;DHT22;20233;50.804;7.126;2023-05-24T08:14:04;12.40;99.90
33955;DHT22;20233;50.804;7.126;2023-05-24T08:16:33;12.70;99.90
33955;DHT22;20233;50.804;7.126;2023-05-24T08:19:00;13.00;99.90
33955;DHT22;20233;50.804;7.126;2023-05-24T08:21:27;13.00;99.90
33955;DHT22;20233;50.804;7.126;2023-05-24T08:23:54;12.80;99.90
33955;DHT22;20233;50.804;7.126;2023-05-24T08:26:23;13.00;99.90
33955;DHT22;20233;50.804;7.126;2023-05-24T08:28:51;13.10;99.90
33955;DHT22;20233;50.804;7.126;2023-05-24T08:31:18;13.10;99.90
33955;DHT22;20233;50.804;7.126;2023-05-24T08:33:45;13.10;99.90
33955;DHT22;20233;50.804;7.126;2023-05-24T08:36:16;13.10;99.90
33955;DHT22;20233;50.804;7.126;2023-05-24T08:38:45;13.60;99.90
33955;DHT22;20233;50.804;7.126;2023-05-24T08:41:13;13.20;99.90
33955;DHT22;20233;50.804;7.126;2023-05-24T08:43:42;13.20;99.90
33955;DHT22;20233;50.804;7.126;2023-05-24T08:46:11;13.30;99.90
33955;DHT22;20233;50.804;7.126;2023-05-24T08:48:45;13.30;99.90
33955;DHT22;20233;50.804;7.126;2023-05-24T08:51:16;13.70;99.90
33955;DHT22;20233;50.804;7.126;2023-05-24T08:53:43;13.30;99.90
33955;DHT22;20233;50.804;7.126;2023-05-24T08:56:16;13.50;99.90
33955;DHT22;20233;50.804;7.126;2023-05-24T08:58:43;13.50;99.90
33955;DHT22;20233;50.804;7.126;2023-05-24T09:01:16;13.10;99.90
33955;DHT22;20233;50.804;7.126;2023-05-24T09:03:46;13.10;99.90
33955;DHT22;20233;50.804;7.126;2023-05-24T09:06:17;13.00;99.90
33955;DHT22;20233;50.804;7.126;2023-05-24T09:08:46;12.80;99.90
33955;DHT22;20233;50.804;7.126;2023-05-24T09:11:17;13.00;99.90
33955;DHT22;20233;50.804;7.126;2023-05-24T09:13:46;12.90;99.90
33955;DHT22;20233;50.804;7.126;2023-05-24T09:16:15;13.00;99.90
33955;DHT22;20233;50.804;7.126;2023-05-24T09:18:43;13.00;99.90
33955;DHT22;20233;50.804;7.126;2023-05-24T09:21:11;13.00;99.90
33955;DHT22;20233;50.804;7.126;2023-05-24T09:23:41;12.90;99.90
33955;DHT22;20233;50.804;7.126;2023-05-24T09:26:13;12.70;99.90
33955;DHT22;20233;50.804;7.126;2023-05-24T09:28:41;12.80;99.90
33955;DHT22;20233;50.804;7.126;2023-05-24T09:31:10;13.00;99.90
33955;DHT22;20233;50.804;7.126;2023-05-24T09:33:48;12.80;99.90
33955;DHT22;20233;50.804;7.126;2023-05-24T09:36:16;12.70;99.90
33955;DHT22;20233;50.804;7.126;2023-05-24T09:38:44;13.20;99.90
33955;DHT22;20233;50.804;7.126;2023-05-24T09:41:12;13.50;99.90
33955;DHT22;20233;50.804;7.126;2023-05-24T09:43:49;13.30;99.90
33955;DHT22;20233;50.804;7.126;2023-05-24T09:46:18;13.40;99.90
33955;DHT22;20233;50.804;7.126;2023-05-24T09:48:59;13.70;99.90
33955;DHT22;20233;50.804;7.126;2023-05-24T09:51:29;13.80;99.90
33955;DHT22;20233;50.804;7.126;2023-05-24T09:53:59;13.50;99.90
33955;DHT22;20233;50.804;7.126;2023-05-24T09:56:26;13.50;99.90
33955;DHT22;20233;50.804;7.126;2023-05-24T09:58:53;13.40;99.90
33955;DHT22;20233;50.804;7.126;2023-05-24T10:01:22;13.50;99.90
33955;DHT22;20233;50.804;7.126;2023-05-24T10:03:58;13.60;99.90
33955;DHT22;20233;50.804;7.126;2023-05-24T10:06:28;13.70;99.90
33955;DHT22;20233;50.804;7.126;2023-05-24T10:08:58;14.20;99.90
33955;DHT22;20233;50.804;7.126;2023-05-24T10:11:25;14.40;99.90
33955;DHT22;20233;50.804;7.126;2023-05-24T10:13:53;14.30;99.90
33955;DHT22;20233;50.804;7.126;2023-05-24T10:16:23;14.30;99.90
33955;DHT22;20233;50.804;7.126;2023-05-24T10:18:50;14.40;99.90
33955;DHT22;20233;50.804;7.126;2023-05-24T10:21:19;14.40;99.90
33955;DHT22;20233;50.804;7.126;2023-05-24T10:23:49;14.20;99.90
33955;DHT22;20233;50.804;7.126;2023-05-24T10:26:18;14.00;99.90
33955;DHT22;20233;50.804;7.126;2023-05-24T10:28:50;14.00;99.90
33955;DHT22;20233;50.804;7.126;2023-05-24T10:31:31;14.10;99.90
33955;DHT22;20233;50.804;7.126;2023-05-24T10:34:02;14.10;99.90
33955;DHT22;20233;50.804;7.126;2023-05-24T10:36:29;14.30;99.90
33955;DHT22;20233;50.804;7.126;2023-05-24T10:38:56;13.90;99.90
33955;DHT22;20233;50.804;7.126;2023-05-24T10:41:27;13.40;99.90
33955;DHT22;20233;50.804;7.126;2023-05-24T10:43:53;13.70;99.90
33955;DHT22;20233;50.804;7.126;2023-05-24T10:46:22;14.10;99.90
33955;DHT22;20233;50.804;7.126;2023-05-24T10:48:59;14.40;99.90
33955;DHT22;20233;50.804;7.126;2023-05-24T10:51:37;14.90;99.90
33955;DHT22;20233;50.804;7.126;2023-05-24T10:54:12;14.20;99.90
33955;DHT22;20233;50.804;7.126;2023-05-24T10:56:41;14.40;99.90
33955;DHT22;20233;50.804;7.126;2023-05-24T10:59:22;13.80;99.90
33955;DHT22;20233;50.804;7.126;2023-05-24T11:01:57;14.00;99.90
33955;DHT22;20233;50.804;7.126;2023-05-24T11:04:24;14.10;99.90
33955;DHT22;20233;50.804;7.126;2023-05-24T11:07:04;14.60;99.90
33955;DHT22;20233;50.804;7.126;2023-05-24T11:09:38;14.40;99.90
33955;DHT22;20233;50.804;7.126;2023-05-24T11:12:33;14.50;99.90
33955;DHT22;20233;50.804;7.126;2023-05-24T11:15:08;14.00;99.90
33955;DHT22;20233;50.804;7.126;2023-05-24T11:20:44;13.90;99.90
33955;DHT22;20233;50.804;7.126;2023-05-24T11:23:14;14.10;99.90
33955;DHT22;20233;50.804;7.126;2023-05-24T11:25:43;14.30;99.90
33955;DHT22;20233;50.804;7.126;2023-05-24T11:28:11;14.60;99.90
33955;DHT22;20233;50.804;7.126;2023-05-24T11:30:45;14.70;99.90
33955;DHT22;20233;50.804;7.126;2023-05-24T11:33:20;14.90;99.90
33955;DHT22;20233;50.804;7.126;2023-05-24T11:35:53;15.50;99.90
33955;DHT22;20233;50.804;7.126;2023-05-24T11:38:22;15.80;99.90
33955;DHT22;20233;50.804;7.126;2023-05-24T11:40:53;15.70;99.90
33955;DHT22;20233;50.804;7.126;2023-05-24T11:43:20;15.60;99.90
33955;DHT22;20233;50.804;7.126;2023-05-24T11:45:51;15.30;99.90
33955;DHT22;20233;50.804;7.126;2023-05-24T11:48:19;15.20;99.90
33955;DHT22;20233;50.804;7.126;2023-05-24T11:50:48;14.70;99.90
33955;DHT22;20233;50.804;7.126;2023-05-24T11:53:17;15.00;99.90
33955;DHT22;20233;50.804;7.126;2023-05-24T11:55:46;14.90;99.90
33955;DHT22;20233;50.804;7.126;2023-05-24T11:58:31;15.20;99.90
33955;DHT22;20233;50.804;7.126;2023-05-24T12:01:02;15.60;99.90
33955;DHT22;20233;50.804;7.126;2023-05-24T12:03:31;15.40;99.90
33955;DHT22;20233;50.804;7.126;2023-05-24T12:05:58;14.80;99.90
33955;DHT22;20233;50.804;7.126;2023-05-24T12:08:25;14.60;99.90
33955;DHT22;20233;50.804;7.126;2023-05-24T12:10:55;14.60;99.90
33955;DHT22;20233;50.804;7.126;2023-05-24T12:13:23;14.50;99.90
33955;DHT22;20233;50.804;7.126;2023-05-24T12:15:54;14.40;99.90
33955;DHT22;20233;50.804;7.126;2023-05-24T12:18:24;14.60;99.90
33955;DHT22;20233;50.804;7.126;2023-05-24T12:20:52;14.40;99.90
33955;DHT22;20233;50.804;7.126;2023-05-24T12:23:26;14.40;99.90
33955;DHT22;20233;50.804;7.126;2023-05-24T12:25:59;14.50;99.90
33955;DHT22;20233;50.804;7.126;2023-05-24T12:28:26;14.60;99.90
33955;DHT22;20233;50.804;7.126;2023-05-24T12:30:53;14.50;99.90
33955;DHT22;20233;50.804;7.126;2023-05-24T12:33:22;14.90;99.90
33955;DHT22;20233;50.804;7.126;2023-05-24T12:35:51;14.80;99.90
33955;DHT22;20233;50.804;7.126;2023-05-24T12:38:19;14.50;99.90
33955;DHT22;20233;50.804;7.126;2023-05-24T12:40:54;14.60;99.90
33955;DHT22;20233;50.804;7.126;2023-05-24T12:43:21;14.70;99.90
33955;DHT22;20233;50.804;7.126;2023-05-24T12:45:49;14.70;99.90
33955;DHT22;20233;50.804;7.126;2023-05-24T12:48:17;14.50;99.90
33955;DHT22;20233;50.804;7.126;2023-05-24T12:50:44;14.50;99.90
33955;DHT22;20233;50.804;7.126;2023-05-24T12:53:11;14.70;99.90
33955;DHT22;20233;50.804;7.126;2023-05-24T12:55:39;14.80;99.90
33955;DHT22;20233;50.804;7.126;2023-05-24T12:58:08;15.10;99.90
33955;DHT22;20233;50.804;7.126;2023-05-24T13:00:39;14.80;99.90
33955;DHT22;20233;50.804;7.126;2023-05-24T13:03:10;14.90;99.90
33955;DHT22;20233;50.804;7.126;2023-05-24T13:05:40;15.20;99.90
33955;DHT22;20233;50.804;7.126;2023-05-24T13:08:10;15.20;99.90
33955;DHT22;20233;50.804;7.126;2023-05-24T13:10:39;15.20;99.90
33955;DHT22;20233;50.804;7.126;2023-05-24T13:13:08;14.70;99.90
33955;DHT22;20233;50.804;7.126;2023-05-24T13:15:38;14.60;99.90
33955;DHT22;20233;50.804;7.126;2023-05-24T13:18:09;14.80;99.90
33955;DHT22;20233;50.804;7.126;2023-05-24T13:20:38;15.00;99.90
33955;DHT22;20233;50.804;7.126;2023-05-24T13:23:06;14.90;99.90
33955;DHT22;20233;50.804;7.126;2023-05-24T13:25:34;14.80;99.90
33955;DHT22;20233;50.804;7.126;2023-05-24T13:28:08;14.90;99.90
33955;DHT22;20233;50.804;7.126;2023-05-24T13:30:38;15.00;99.90
33955;DHT22;20233;50.804;7.126;2023-05-24T13:33:06;15.00;99.90
33955;DHT22;20233;50.804;7.126;2023-05-24T13:35:33;14.90;99.90
33955;DHT22;20233;50.804;7.126;2023-05-24T13:38:09;14.90;99.90
33955;DHT22;20233;50.804;7.126;2023-05-24T13:40:40;14.90;99.90
33955;DHT22;20233;50.804;7.126;2023-05-24T13:43:12;15.20;99.90
33955;DHT22;20233;50.804;7.126;2023-05-24T13:45:42;15.20;99.90
33955;DHT22;20233;50.804;7.126;2023-05-24T13:48:11;15.10;99.90
33955;DHT22;20233;50.804;7.126;2023-05-24T13:50:41;15.10;99.90
33955;DHT22;20233;50.804;7.126;2023-05-24T13:53:11;14.90;99.90
33955;DHT22;20233;50.804;7.126;2023-05-24T13:55:41;15.00;99.90
33955;DHT22;20233;50.804;7.126;2023-05-24T13:58:11;15.30;99.90
33955;DHT22;20233;50.804;7.126;2023-05-24T14:00:41;15.10;99.90
33955;DHT22;20233;50.804;7.126;2023-05-24T14:03:07;14.90;99.90
33955;DHT22;20233;50.804;7.126;2023-05-24T14:05:35;14.90;99.90
33955;DHT22;20233;50.804;7.126;2023-05-24T14:08:02;14.90;99.90
33955;DHT22;20233;50.804;7.126;2023-05-24T14:10:33;15.00;99.90
33955;DHT22;20233;50.804;7.126;2023-05-24T14:13:04;14.90;99.90
33955;DHT22;20233;50.804;7.126;2023-05-24T14:15:32;15.20;99.90
33955;DHT22;20233;50.804;7.126;2023-05-24T14:18:01;15.20;99.90
33955;DHT22;20233;50.804;7.126;2023-05-24T14:20:33;15.10;99.90
33955;DHT22;20233;50.804;7.126;2023-05-24T14:23:03;15.10;99.90
33955;DHT22;20233;50.804;7.126;2023-05-24T14:25:32;15.30;99.90
33955;DHT22;20233;50.804;7.126;2023-05-24T14:27:59;15.50;99.90
33955;DHT22;20233;50.804;7.126;2023-05-24T14:30:29;15.50;99.90
33955;DHT22;20233;50.804;7.126;2023-05-24T14:32:57;15.50;99.90
33955;DHT22;20233;50.804;7.126;2023-05-24T14:35:25;15.40;99.90
33955;DHT22;20233;50.804;7.126;2023-05-24T14:37:52;15.50;99.90
33955;DHT22;20233;50.804;7.126;2023-05-24T14:40:21;15.60;99.90
33955;DHT22;20233;50.804;7.126;2023-05-24T14:42:48;16.00;99.90
33955;DHT22;20233;50.804;7.126;2023-05-24T14:45:15;16.10;99.90
33955;DHT22;20233;50.804;7.126;2023-05-24T14:47:43;16.00;99.90
33955;DHT22;20233;50.804;7.126;2023-05-24T14:50:11;15.80;99.90
33955;DHT22;20233;50.804;7.126;2023-05-24T14:52:38;15.70;99.90
33955;DHT22;20233;50.804;7.126;2023-05-24T14:55:06;15.80;99.90
33955;DHT22;20233;50.804;7.126;2023-05-24T14:57:32;15.80;99.90
33955;DHT22;20233;50.804;7.126;2023-05-24T14:59:59;16.30;99.90
33955;DHT22;20233;50.804;7.126;2023-05-24T15:02:25;16.30;99.90
33955;DHT22;20233;50.804;7.126;2023-05-24T15:04:52;16.20;99.90
33955;DHT22;20233;50.804;7.126;2023-05-24T15:07:20;16.10;99.90
33955;DHT22;20233;50.804;7.126;2023-05-24T15:09:48;16.10;99.90
33955;DHT22;20233;50.804;7.126;2023-05-24T15:12:15;16.00;99.90
33955;DHT22;20233;50.804;7.126;2023-05-24T15:14:42;16.10;99.90
33955;DHT22;20233;50.804;7.126;2023-05-24T15:17:09;15.80;99.90
33955;DHT22;20233;50.804;7.126;2023-05-24T15:19:37;15.60;99.90
33955;DHT22;20233;50.804;7.126;2023-05-24T15:22:05;15.80;99.90
33955;DHT22;20233;50.804;7.126;2023-05-24T15:24:32;16.10;99.90
33955;DHT22;20233;50.804;7.126;2023-05-24T15:27:01;16.10;99.90
33955;DHT22;20233;50.804;7.126;2023-05-24T15:29:28;16.10;99.90
33955;DHT22;20233;50.804;7.126;2023-05-24T15:31:54;16.40;99.90
33955;DHT22;20233;50.804;7.126;2023-05-24T15:34:23;16.40;99.90
33955;DHT22;20233;50.804;7.126;2023-05-24T15:36:50;16.10;99.90
33955;DHT22;20233;50.804;7.126;2023-05-24T15:39:18;16.10;99.90
33955;DHT22;20233;50.804;7.126;2023-05-24T15:41:45;16.30;99.90
33955;DHT22;20233;50.804;7.126;2023-05-24T15:44:12;16.00;99.90
33955;DHT22;20233;50.804;7.126;2023-05-24T15:46:39;16.10;99.90
33955;DHT22;20233;50.804;7.126;2023-05-24T15:49:06;16.10;99.90
33955;DHT22;20233;50.804;7.126;2023-05-24T15:51:34;16.20;99.90
33955;DHT22;20233;50.804;7.126;2023-05-24T15:54:02;16.00;99.90
33955;DHT22;20233;50.804;7.126;2023-05-24T15:56:29;16.00;99.90
33955;DHT22;20233;50.804;7.126;2023-05-24T15:58:56;15.90;99.90
33955;DHT22;20233;50.804;7.126;2023-05-24T16:01:26;16.10;99.90
33955;DHT22;20233;50.804;7.126;2023-05-24T16:03:54;15.80;99.90
33955;DHT22;20233;50.804;7.126;2023-05-24T16:06:21;15.50;99.90